Terminal Aerodrome Forecast
Issued by NWS

Home | Current Version | Previous Version | Text Only | Print | Product List | Glossary On
Versions: 1 2 3 4 5 6 7 8 9 10 11 12 13 14 15 16 17 18 19
000
FTUS46 KSEW 301700
TAFPAE
TAF
KPAE 301734Z 3018/3118 25008KT P6SM SCT017
     FM302000 26008KT P6SM SCT250
     FM310100 31006KT P6SM SCT250
     FM310400 36004KT P6SM SCT250
     FM311400 VRB03KT P6SM BKN011
     FM311700 34005KT P6SM SCT250=

USA.gov is the U.S. government's official web portal to all federal, state and local government web resources and services.